Time;durP1;ratioP1;P1;durP2;ratioP2;P2;SDS_P1;SDS_P2;PMS_P1;PMS_P2;Temp;Humidity;BMP_temperature;BMP_pressure;BME280_temperature;BME280_humidity;BME280_pressure;Samples;Min_cycle;Max_cycle;Signal;HPM_P1;HPM_P2
2022/05/30 00:00:55;;;;;;;10.23;5.85;;;;;;;7.32;96.46;98948.13;5065991;28;20419;-54
2022/05/30 00:03:21;;;;;;;9.02;5.95;;;;;;;7.29;96.07;98942.44;5065750;28;20097;-52
2022/05/30 00:05:48;;;;;;;8.50;5.95;;;;;;;7.40;94.85;98951.50;5064584;28;20424;-54
2022/05/30 00:08:14;;;;;;;5.05;3.60;;;;;;;7.28;91.48;98946.94;5081036;28;20029;-54
2022/05/30 00:10:40;;;;;;;4.82;3.30;;;;;;;7.33;91.41;98947.06;5060376;28;20052;-54
2022/05/30 00:13:06;;;;;;;6.53;3.83;;;;;;;7.24;91.73;98947.63;5064549;28;20044;-53
2022/05/30 00:15:32;;;;;;;6.68;3.97;;;;;;;7.06;94.73;98946.66;5072551;28;20024;-54
2022/05/30 00:17:58;;;;;;;6.80;3.97;;;;;;;7.39;93.28;98949.88;5062243;28;20394;-54
2022/05/30 00:20:24;;;;;;;6.72;3.88;;;;;;;7.31;91.55;98945.69;5064142;28;20668;-54
2022/05/30 00:22:50;;;;;;;5.95;3.00;;;;;;;7.25;90.68;98943.94;5063864;28;20062;-54
2022/05/30 00:25:16;;;;;;;5.78;3.60;;;;;;;7.19;90.90;98944.81;5063396;28;20610;-54
2022/05/30 00:27:43;;;;;;;8.38;3.50;;;;;;;7.18;90.87;98940.53;5065028;28;20036;-54
2022/05/30 00:30:09;;;;;;;5.25;3.00;;;;;;;7.12;91.44;98937.75;5065894;28;20021;-55
2022/05/30 00:32:35;;;;;;;6.28;3.88;;;;;;;7.01;94.30;98938.50;5064824;28;20020;-54
2022/05/30 00:35:01;;;;;;;7.53;3.67;;;;;;;7.21;93.81;98940.91;5065803;28;20081;-53
2022/05/30 00:37:27;;;;;;;5.20;3.30;;;;;;;7.33;92.92;98935.59;5062476;28;20037;-55
2022/05/30 00:39:53;;;;;;;6.47;3.40;;;;;;;7.28;91.95;98938.13;5064341;28;20033;-54
2022/05/30 00:42:22;;;;;;;5.57;3.70;;;;;;;7.18;92.92;98932.56;5057309;28;20036;-54
2022/05/30 00:44:48;;;;;;;6.93;3.50;;;;;;;7.28;92.95;98930.16;5065753;28;20127;-53
2022/05/30 00:47:14;;;;;;;5.25;3.85;;;;;;;7.48;92.56;98927.97;5064773;28;20281;-56
2022/05/30 00:49:41;;;;;;;6.13;3.80;;;;;;;7.36;92.01;98924.47;5063660;28;20059;-56
2022/05/30 00:52:08;;;;;;;5.05;3.60;;;;;;;7.34;92.14;98924.72;5063190;28;20646;-55
2022/05/30 00:55:01;;;;;;;7.80;4.05;;;;;;;7.31;91.53;98919.03;5051720;28;20763;-53
2022/05/30 00:57:28;;;;;;;5.32;3.47;;;;;;;7.39;91.38;98918.72;5058509;28;20032;-56
2022/05/30 01:00:04;;;;;;;4.97;3.70;;;;;;;7.46;91.62;98919.41;5048297;28;20172;-55
2022/05/30 01:02:32;;;;;;;6.28;3.90;;;;;;;7.30;91.56;98920.06;5061239;28;20032;-54
2022/05/30 01:07:41;;;;;;;5.60;3.72;;;;;;;7.13;93.77;98915.38;5064841;28;20044;-55
2022/05/30 01:10:09;;;;;;;6.50;3.58;;;;;;;7.23;93.83;98919.34;5064105;28;20340;-55
2022/05/30 01:12:40;;;;;;;5.93;3.58;;;;;;;7.29;92.85;98916.59;5062819;28;20673;-55
2022/05/30 01:15:08;;;;;;;6.85;4.13;;;;;;;7.28;92.47;98914.16;5064839;28;20134;-55
2022/05/30 01:17:33;;;;;;;5.80;3.88;;;;;;;7.40;92.23;98912.31;5059622;28;20040;-55
2022/05/30 01:20:05;;;;;;;8.10;4.30;;;;;;;7.25;92.79;98906.63;5052182;28;20473;-53
2022/05/30 01:22:46;;;;;;;7.65;3.83;;;;;;;7.53;92.62;98912.09;5038159;28;20043;-55
2022/05/30 01:25:17;;;;;;;5.82;3.95;;;;;;;7.46;92.34;98908.75;5064804;28;20158;-55
2022/05/30 01:28:08;;;;;;;5.22;4.00;;;;;;;7.38;91.74;98909.06;5064092;28;20033;-56
2022/05/30 01:30:35;;;;;;;5.97;4.05;;;;;;;7.47;91.94;98907.69;5059069;28;20097;-55
2022/05/30 01:33:00;;;;;;;7.18;4.18;;;;;;;7.52;92.19;98907.00;5064446;28;20454;-54
2022/05/30 01:35:26;;;;;;;7.93;4.15;;;;;;;7.57;91.39;98910.59;5064865;28;20032;-55
2022/05/30 01:37:52;;;;;;;6.35;3.90;;;;;;;7.65;91.53;98903.31;5063185;28;20047;-55
2022/05/30 01:40:18;;;;;;;8.65;4.85;;;;;;;7.55;91.69;98911.88;5065067;28;20064;-55
2022/05/30 01:42:44;;;;;;;11.15;5.38;;;;;;;7.50;91.94;98899.22;5068172;28;20033;-56
2022/05/30 01:45:10;;;;;;;6.85;4.68;;;;;;;7.56;92.00;98901.00;5068821;28;20052;-54
2022/05/30 01:47:35;;;;;;;9.27;5.20;;;;;;;7.68;91.51;98897.50;5068006;28;20744;-55
2022/05/30 01:50:01;;;;;;;9.95;5.75;;;;;;;7.61;90.80;98899.47;5055477;28;20033;-55
2022/05/30 01:52:28;;;;;;;11.68;5.93;;;;;;;7.64;90.89;98897.16;5062239;28;20067;-55
2022/05/30 01:54:54;;;;;;;10.15;5.63;;;;;;;7.72;90.88;98896.00;5067331;28;20040;-55
2022/05/30 01:57:20;;;;;;;12.35;5.75;;;;;;;7.66;90.99;98896.91;5067680;28;20390;-55
2022/05/30 01:59:46;;;;;;;11.15;5.93;;;;;;;7.82;91.06;98896.25;5066540;28;20036;-55
2022/05/30 02:02:14;;;;;;;13.73;5.43;;;;;;;7.91;90.46;98894.84;5068670;28;20770;-55
2022/05/30 02:04:40;;;;;;;10.95;5.50;;;;;;;7.97;89.77;98896.56;5068075;28;20051;-56
2022/05/30 02:07:06;;;;;;;10.48;6.20;;;;;;;7.74;90.44;98893.94;5066834;28;20032;-55
2022/05/30 02:09:31;;;;;;;15.63;6.47;;;;;;;7.83;90.75;98891.72;5066678;28;20122;-57
2022/05/30 02:11:57;;;;;;;9.93;5.53;;;;;;;7.97;91.23;98893.91;5068102;28;20451;-56
2022/05/30 02:14:23;;;;;;;9.95;5.90;;;;;;;7.86;91.44;98897.41;5065408;28;20032;-55
2022/05/30 02:17:01;;;;;;;9.43;5.90;;;;;;;7.79;91.14;98888.72;5056647;28;20088;-56
2022/05/30 02:19:37;;;;;;;11.85;6.50;;;;;;;7.89;91.29;98885.47;5064836;28;20139;-55
2022/05/30 02:22:03;;;;;;;11.70;5.93;;;;;;;7.93;90.95;98892.75;5055350;28;20024;-56
2022/05/30 02:24:28;;;;;;;13.43;6.82;;;;;;;7.87;91.56;98885.69;5068020;28;20031;-56
2022/05/30 02:26:54;;;;;;;9.65;5.63;;;;;;;7.88;91.46;98891.81;5072053;28;20040;-56
2022/05/30 02:29:20;;;;;;;9.35;6.53;;;;;;;7.66;93.35;98880.91;5066532;28;20036;-54
2022/05/30 02:31:46;;;;;;;14.70;7.53;;;;;;;7.61;93.61;98888.81;5068205;28;20043;-54
2022/05/30 02:36:56;;;;;;;11.70;6.80;;;;;;;7.69;93.30;98883.94;5064622;28;20040;-55
2022/05/30 02:39:22;;;;;;;14.57;6.55;;;;;;;7.75;93.23;98880.34;5066838;28;20024;-55
2022/05/30 02:41:48;;;;;;;10.85;6.38;;;;;;;7.73;93.05;98886.94;5066157;28;20067;-55
2022/05/30 02:44:14;;;;;;;13.38;7.05;;;;;;;7.70;93.67;98879.41;5067742;28;20060;-56
2022/05/30 02:46:40;;;;;;;12.10;7.35;;;;;;;7.63;93.63;98881.38;5068346;28;20123;-55
2022/05/30 02:49:05;;;;;;;14.68;6.72;;;;;;;7.47;94.73;98880.22;5067294;28;20112;-55
2022/05/30 02:51:31;;;;;;;12.45;6.15;;;;;;;7.52;95.02;98885.69;5064690;28;20020;-56
2022/05/30 02:53:57;;;;;;;10.18;6.72;;;;;;;7.58;94.71;98882.06;5064907;28;20024;-55
2022/05/30 02:56:22;;;;;;;14.63;7.28;;;;;;;7.72;94.61;98886.16;5065961;28;20040;-56
2022/05/30 02:58:48;;;;;;;13.88;7.40;;;;;;;7.81;94.05;98883.94;5064835;28;20037;-56
2022/05/30 03:01:14;;;;;;;15.38;7.82;;;;;;;7.91;94.16;98884.19;5067703;28;20024;-55
2022/05/30 03:03:40;;;;;;;14.23;7.30;;;;;;;7.73;92.81;98873.63;5067110;28;20032;-55
2022/05/30 03:06:05;;;;;;;10.30;6.78;;;;;;;7.66;92.94;98875.59;5061649;28;20174;-55
2022/05/30 03:08:31;;;;;;;14.07;7.53;;;;;;;7.69;93.60;98883.94;5065367;28;20086;-55
2022/05/30 03:10:57;;;;;;;11.35;7.30;;;;;;;7.82;94.08;98877.56;5082726;28;20146;-55
2022/05/30 03:13:22;;;;;;;15.20;7.07;;;;;;;7.96;93.15;98881.63;5067910;28;20531;-56
2022/05/30 03:15:48;;;;;;;13.70;7.32;;;;;;;7.88;92.43;98873.94;5065934;28;20016;-55
2022/05/30 03:18:14;;;;;;;13.63;7.82;;;;;;;7.90;93.32;98882.53;5066143;28;20432;-55
2022/05/30 03:20:39;;;;;;;13.60;7.18;;;;;;;8.12;92.82;98874.75;5061826;28;20410;-55
2022/05/30 03:23:06;;;;;;;14.55;7.93;;;;;;;7.96;91.44;98889.63;5064570;28;20438;-55
2022/05/30 03:25:31;;;;;;;13.52;7.80;;;;;;;7.78;92.42;98879.06;5064292;28;20036;-55
2022/05/30 03:27:57;;;;;;;14.65;9.15;;;;;;;7.70;93.01;98876.75;5064297;28;20037;-54
2022/05/30 03:30:23;;;;;;;17.05;7.82;;;;;;;7.78;94.68;98885.19;5059204;28;20051;-56
2022/05/30 03:32:48;;;;;;;18.13;8.68;;;;;;;7.68;93.31;98873.50;5062413;28;20035;-54
2022/05/30 03:35:16;;;;;;;19.13;8.52;;;;;;;7.68;93.63;98878.84;5064319;28;20059;-54
2022/05/30 03:37:41;;;;;;;19.38;8.75;;;;;;;7.69;94.27;98883.94;5062759;28;20183;-56
2022/05/30 03:40:08;;;;;;;14.15;7.80;;;;;;;7.65;93.49;98884.63;5075578;28;20490;-54
2022/05/30 03:42:34;;;;;;;18.80;8.43;;;;;;;7.64;93.69;98888.34;5066265;28;20492;-56
2022/05/30 03:45:00;;;;;;;15.40;7.95;;;;;;;7.64;93.73;98891.00;5067224;28;20063;-56
2022/05/30 03:47:25;;;;;;;13.05;8.07;;;;;;;7.69;94.04;98891.94;5066033;28;20032;-55
2022/05/30 03:49:58;;;;;;;16.23;7.80;;;;;;;7.75;94.11;98890.19;5064027;28;20068;-55
2022/05/30 03:52:24;;;;;;;14.25;7.22;;;;;;;7.81;92.98;98899.13;5063761;28;20036;-55
2022/05/30 03:54:49;;;;;;;12.98;6.13;;;;;;;7.79;92.49;98896.72;5065260;28;20096;-54
2022/05/30 03:57:15;;;;;;;11.80;7.07;;;;;;;8.01;93.85;98896.91;5065852;28;20495;-56
2022/05/30 03:59:40;;;;;;;15.25;8.90;;;;;;;8.17;92.53;98893.53;5065839;28;20478;-55
2022/05/30 04:02:06;;;;;;;13.77;8.70;;;;;;;8.10;92.56;98887.50;5065036;28;20032;-55
2022/05/30 04:04:34;;;;;;;13.10;8.52;;;;;;;8.45;91.23;98893.84;5060165;28;20031;-55
2022/05/30 04:07:08;;;;;;;15.15;9.73;;;;;;;8.51;89.81;98893.72;5080450;28;20514;-55
2022/05/30 04:09:34;;;;;;;12.45;7.55;;;;;;;8.53;89.98;98896.16;5060225;28;20124;-55
2022/05/30 04:12:02;;;;;;;18.83;9.48;;;;;;;8.45;89.93;98888.50;5062935;28;20240;-55
2022/05/30 04:14:28;;;;;;;19.50;9.02;;;;;;;8.21;90.64;98888.53;5065072;28;20109;-56
2022/05/30 04:16:54;;;;;;;17.40;7.80;;;;;;;8.40;91.14;98886.56;5064310;28;20454;-55
2022/05/30 04:19:22;;;;;;;12.90;5.95;;;;;;;8.59;88.50;98890.69;5048876;28;20119;-55
2022/05/30 04:21:54;;;;;;;15.23;6.90;;;;;;;8.70;87.88;98896.22;5053632;28;20028;-55
2022/05/30 04:24:19;;;;;;;10.38;6.93;;;;;;;8.95;86.69;98883.31;5064516;28;20048;-53
2022/05/30 04:26:45;;;;;;;14.40;8.80;;;;;;;9.29;85.91;98894.88;5079077;28;20464;-56
2022/05/30 04:29:10;;;;;;;17.67;9.50;;;;;;;9.24;86.07;98896.66;5063771;28;20060;-55
2022/05/30 04:31:36;;;;;;;20.90;9.98;;;;;;;9.09;85.83;98901.75;5059271;28;20029;-55
2022/05/30 04:34:04;;;;;;;20.85;11.32;;;;;;;9.08;86.45;98898.25;5065017;28;20560;-56
2022/05/30 04:36:30;;;;;;;9.82;6.03;;;;;;;9.14;85.79;98901.84;5064598;28;20024;-54
2022/05/30 04:38:56;;;;;;;9.35;6.07;;;;;;;9.03;85.46;98906.97;5063260;28;20415;-55
2022/05/30 04:41:21;;;;;;;9.25;5.75;;;;;;;9.13;85.66;98903.69;5065492;28;20059;-55
2022/05/30 04:43:47;;;;;;;11.82;5.78;;;;;;;9.14;85.38;98905.31;5063603;28;20440;-56
2022/05/30 04:46:14;;;;;;;12.57;6.43;;;;;;;9.22;85.25;98904.09;5063423;28;20032;-57
2022/05/30 04:48:40;;;;;;;8.27;5.22;;;;;;;9.35;85.55;98902.97;5064618;28;20029;-56
2022/05/30 04:51:06;;;;;;;10.73;5.50;;;;;;;9.10;86.40;98906.84;5062681;28;20101;-57
2022/05/30 04:53:32;;;;;;;10.10;6.38;;;;;;;9.14;87.29;98908.00;5068530;28;20042;-57
2022/05/30 04:55:58;;;;;;;10.15;5.95;;;;;;;9.20;88.12;98917.72;5063688;28;20047;-55
2022/05/30 04:58:23;;;;;;;11.23;6.22;;;;;;;9.18;88.22;98914.47;5064780;28;20041;-55
2022/05/30 05:00:49;;;;;;;11.98;6.80;;;;;;;9.15;86.86;98922.16;5063157;28;20021;-55
2022/05/30 05:03:15;;;;;;;12.18;7.15;;;;;;;8.99;88.05;98921.09;5064929;28;20028;-57
2022/05/30 05:05:40;;;;;;;13.23;7.38;;;;;;;8.94;87.45;98929.00;5062074;28;20449;-56
2022/05/30 05:08:13;;;;;;;13.88;7.22;;;;;;;8.66;88.91;98922.56;5063203;28;20035;-57
2022/05/30 05:10:46;;;;;;;17.83;7.82;;;;;;;8.83;88.29;98928.78;5062821;28;20024;-57
2022/05/30 05:13:12;;;;;;;15.98;7.85;;;;;;;8.78;88.73;98925.22;5064751;28;20249;-57
2022/05/30 05:15:37;;;;;;;17.10;9.00;;;;;;;8.74;89.36;98935.59;5068281;28;20021;-56
2022/05/30 05:18:04;;;;;;;15.52;8.63;;;;;;;8.83;88.76;98942.16;5064614;28;20509;-57
2022/05/30 05:20:32;;;;;;;17.85;9.20;;;;;;;8.94;88.44;98937.03;5062165;28;20033;-57
2022/05/30 05:22:57;;;;;;;29.58;9.35;;;;;;;9.07;87.95;98939.41;5065149;28;20111;-56
2022/05/30 05:25:23;;;;;;;15.20;8.65;;;;;;;9.33;86.68;98937.19;5068479;28;20028;-53
2022/05/30 05:27:49;;;;;;;17.92;9.00;;;;;;;9.42;85.92;98941.09;5067764;28;20074;-57
2022/05/30 05:30:14;;;;;;;20.52;8.50;;;;;;;9.48;85.60;98942.78;5067717;28;20028;-56
2022/05/30 05:32:40;;;;;;;23.55;9.63;;;;;;;9.17;86.52;98939.59;5067506;28;20032;-56
2022/05/30 05:35:06;;;;;;;18.55;9.48;;;;;;;9.52;86.94;98951.97;5065339;28;20021;-55
2022/05/30 05:37:33;;;;;;;19.42;9.50;;;;;;;9.57;85.92;98949.38;5068906;28;20036;-56
2022/05/30 05:39:59;;;;;;;18.25;9.55;;;;;;;9.74;84.79;98953.94;5068384;28;20033;-57
2022/05/30 05:42:24;;;;;;;17.48;9.25;;;;;;;9.88;84.35;98955.19;5071457;28;20028;-57
2022/05/30 05:44:50;;;;;;;27.58;9.48;;;;;;;10.09;83.88;98967.84;5068915;28;20034;-55
2022/05/30 05:47:18;;;;;;;19.02;9.88;;;;;;;10.35;82.08;98960.19;5058763;28;20024;-54
2022/05/30 05:49:44;;;;;;;22.92;10.18;;;;;;;10.85;79.29;98955.72;5060681;28;20059;-58
2022/05/30 05:52:10;;;;;;;26.13;9.43;;;;;;;11.11;78.38;98956.84;5067591;28;20393;-57
2022/05/30 05:54:36;;;;;;;23.65;9.63;;;;;;;11.49;77.72;98957.72;5067522;28;20145;-57
2022/05/30 05:57:01;;;;;;;32.33;10.52;;;;;;;12.02;73.76;98961.38;5065771;28;20105;-56
2022/05/30 05:59:27;;;;;;;28.77;10.07;;;;;;;11.99;74.06;98961.91;5066035;28;20514;-56
2022/05/30 06:01:52;;;;;;;26.58;9.65;;;;;;;11.74;75.89;98954.44;5068591;28;20025;-56
2022/05/30 06:04:18;;;;;;;28.33;10.18;;;;;;;11.41;76.84;98953.63;5067344;28;20468;-56
2022/05/30 06:06:44;;;;;;;19.13;10.43;;;;;;;11.49;76.76;98963.91;5067580;28;20277;-56
2022/05/30 06:09:10;;;;;;;19.55;9.57;;;;;;;11.53;75.88;98959.66;5068220;28;20033;-56
2022/05/30 06:11:35;;;;;;;16.45;9.20;;;;;;;11.35;76.46;98962.69;5065564;28;20040;-56
2022/05/30 06:14:01;;;;;;;18.10;10.07;;;;;;;11.32;76.35;98966.69;5066410;28;20024;-56
2022/05/30 06:16:31;;;;;;;23.08;10.52;;;;;;;11.60;74.78;98972.84;5068207;28;20171;-56
2022/05/30 06:18:59;;;;;;;14.02;9.30;;;;;;;11.22;74.96;98967.38;5065582;28;20077;-56
2022/05/30 06:21:26;;;;;;;16.25;9.80;;;;;;;11.11;75.60;98970.25;5066128;28;20440;-55
2022/05/30 06:23:54;;;;;;;21.48;10.57;;;;;;;11.32;75.59;98974.72;5066154;28;20052;-56
2022/05/30 06:26:20;;;;;;;15.25;8.77;;;;;;;11.45;73.80;98977.00;5063713;28;20417;-56
2022/05/30 06:28:46;;;;;;;16.10;9.82;;;;;;;11.24;74.68;98980.56;5064275;28;20129;-55
2022/05/30 06:31:19;;;;;;;15.85;9.15;;;;;;;11.39;74.18;98979.91;5068261;28;20395;-56
2022/05/30 06:33:45;;;;;;;16.45;8.85;;;;;;;11.38;75.01;98984.47;5067115;28;20462;-55
2022/05/30 06:36:15;;;;;;;14.77;9.25;;;;;;;10.95;75.80;98980.78;5065390;28;20016;-56
2022/05/30 06:38:42;;;;;;;17.08;9.45;;;;;;;11.13;74.34;98986.88;5065557;28;20427;-56
2022/05/30 06:41:29;;;;;;;15.27;8.60;;;;;;;11.97;69.79;98989.03;5057715;28;20299;-56
2022/05/30 06:43:56;;;;;;;24.08;8.48;;;;;;;11.74;72.05;98992.03;5063636;28;20429;-55
2022/05/30 06:46:22;;;;;;;11.80;7.43;;;;;;;11.94;71.97;98999.47;5063874;28;20078;-55
2022/05/30 12:08:43;;;;;;;7.65;3.80;;;;;;;15.39;43.17;99044.38;5039878;28;20079;-54
2022/05/30 12:11:30;;;;;;;11.75;3.65;;;;;;;15.52;43.58;99034.84;5016594;28;20040;-55
2022/05/30 12:14:20;;;;;;;11.77;3.40;;;;;;;16.96;41.68;99034.44;5041789;28;20025;-55
2022/05/30 12:17:04;;;;;;;;;;;;;;;16.29;42.75;99028.91;5036965;28;20479;-55
2022/05/30 12:25:34;;;;;;;9.93;3.63;;;;;;;16.78;40.15;99031.41;5042398;28;20086;-54
2022/05/30 12:27:59;;;;;;;11.07;3.55;;;;;;;17.40;39.05;99039.56;5029816;28;20025;-54
2022/05/30 12:30:34;;;;;;;10.75;3.28;;;;;;;17.62;38.44;99030.88;5047397;28;20168;-54
2022/05/30 12:32:59;;;;;;;9.13;3.72;;;;;;;17.67;38.07;99035.38;5039827;28;20024;-55
2022/05/30 12:35:27;;;;;;;6.95;3.47;;;;;;;17.82;38.30;99029.78;5012481;28;20090;-55
2022/05/30 12:37:59;;;;;;;19.08;3.95;;;;;;;15.68;40.36;99030.97;5023953;28;20082;-54
2022/05/30 12:40:27;;;;;;;8.20;3.50;;;;;;;17.37;39.89;99034.75;5033069;28;20435;-53
2022/05/30 12:43:35;;;;;;;10.07;3.92;;;;;;;17.20;39.17;99034.44;5034783;28;20483;-55
2022/05/30 12:46:00;;;;;;;6.40;3.10;;;;;;;17.09;39.91;99038.34;5034581;28;20033;-55
2022/05/30 12:48:52;;;;;;;14.48;5.10;;;;;;;16.99;39.54;99031.16;5038234;28;20047;-55
2022/05/30 12:51:40;;;;;;;6.45;3.33;;;;;;;16.21;39.31;99034.94;5038247;28;20040;-55
2022/05/30 12:54:05;;;;;;;8.65;3.78;;;;;;;16.81;39.97;99038.94;5036556;28;20113;-55
2022/05/30 12:56:36;;;;;;;9.80;3.83;;;;;;;16.98;40.22;99033.06;5041267;28;20120;-55
2022/05/30 12:59:02;;;;;;;13.50;4.00;;;;;;;17.15;40.95;99048.03;5041182;28;20387;-55
2022/05/30 13:01:27;;;;;;;9.93;3.53;;;;;;;17.50;41.18;99046.75;5042822;28;20029;-55
2022/05/30 13:04:06;;;;;;;10.77;3.72;;;;;;;18.21;40.09;99042.16;5039620;28;20426;-55
2022/05/30 13:06:31;;;;;;;17.20;4.20;;;;;;;18.18;40.38;99042.75;5045134;28;20059;-55
2022/05/30 13:09:05;;;;;;;6.78;3.72;;;;;;;16.44;43.16;99036.88;5026290;28;20024;-55
2022/05/30 13:11:47;;;;;;;13.50;5.22;;;;;;;16.57;42.75;99033.50;5046611;28;20029;-52
2022/05/30 13:14:16;;;;;;;10.32;4.32;;;;;;;16.55;42.52;99029.47;5039969;28;20025;-52
2022/05/30 13:16:42;;;;;;;9.60;4.47;;;;;;;17.64;40.79;99033.28;5063080;28;20028;-55
2022/05/30 13:19:12;;;;;;;9.93;4.00;;;;;;;17.28;41.82;99031.06;5035623;28;20031;-55
2022/05/30 13:21:43;;;;;;;9.75;4.32;;;;;;;16.94;41.76;99037.44;5058866;28;20056;-56
2022/05/30 13:24:29;;;;;;;8.52;4.70;;;;;;;16.95;41.79;99035.56;5038079;28;20021;-55
2022/05/30 13:26:55;;;;;;;13.00;4.20;;;;;;;17.61;41.21;99033.88;5062978;28;20144;-56
2022/05/30 13:29:29;;;;;;;6.07;4.07;;;;;;;17.49;40.97;99018.03;5039544;28;20436;-55
2022/05/30 13:31:55;;;;;;;8.32;4.47;;;;;;;16.27;42.02;99025.66;5046271;28;20112;-54
2022/05/30 13:34:23;;;;;;;9.00;4.70;;;;;;;15.34;43.82;99022.81;5055024;28;20027;-54
2022/05/30 13:36:48;;;;;;;8.27;4.68;;;;;;;15.64;43.76;99013.72;5048424;28;20042;-55
2022/05/30 13:39:14;;;;;;;12.38;5.13;;;;;;;16.16;42.57;99014.16;5034233;28;20029;-55
2022/05/30 13:41:39;;;;;;;8.50;4.25;;;;;;;17.63;41.02;99015.41;5042500;28;20256;-53
2022/05/30 13:44:09;;;;;;;19.10;5.63;;;;;;;17.51;41.32;99015.03;5065230;28;20125;-54
2022/05/30 13:46:39;;;;;;;9.95;4.80;;;;;;;17.94;40.91;99020.38;5036975;28;20040;-55
2022/05/30 13:49:05;;;;;;;15.27;4.97;;;;;;;17.51;39.71;99023.19;5039982;28;20052;-55
2022/05/30 13:51:32;;;;;;;7.72;4.30;;;;;;;16.95;40.72;99020.13;5065113;28;20029;-55
2022/05/30 13:53:57;;;;;;;9.93;4.40;;;;;;;16.20;42.35;99023.31;5047218;28;20482;-56
2022/05/30 13:56:35;;;;;;;11.07;5.35;;;;;;;16.22;42.74;99015.69;5065363;28;20130;-55
2022/05/30 13:59:01;;;;;;;10.52;4.68;;;;;;;15.27;43.71;99023.09;5042240;28;20406;-55
2022/05/30 14:01:32;;;;;;;8.07;4.90;;;;;;;14.70;43.43;99035.22;5045189;28;20028;-53
2022/05/30 14:04:02;;;;;;;13.40;5.35;;;;;;;14.72;44.22;99024.97;5027830;28;20596;-55
2022/05/30 14:06:32;;;;;;;10.48;5.38;;;;;;;14.70;44.06;99024.41;5045999;28;20053;-54
2022/05/30 14:09:02;;;;;;;7.30;4.90;;;;;;;14.60;44.50;99027.16;5063711;28;20036;-53
2022/05/30 14:11:45;;;;;;;10.70;4.82;;;;;;;15.09;43.56;99023.75;5038833;28;20055;-54
2022/05/30 14:14:12;;;;;;;9.98;5.30;;;;;;;15.42;43.11;99013.31;5045309;28;20024;-55
2022/05/30 14:16:54;;;;;;;13.57;5.18;;;;;;;15.22;42.34;99016.94;5038543;28;20124;-55
2022/05/30 14:19:29;;;;;;;8.80;4.78;;;;;;;14.78;43.48;99018.47;5066559;28;20271;-55
2022/05/30 14:21:56;;;;;;;17.70;5.63;;;;;;;14.56;44.03;99018.81;5067954;28;20031;-55
2022/05/30 14:24:34;;;;;;;8.52;4.78;;;;;;;15.13;43.34;99016.72;5042493;28;20108;-54
2022/05/30 14:27:01;;;;;;;9.10;4.90;;;;;;;15.38;42.51;99018.47;5056237;28;20025;-55
2022/05/30 14:29:37;;;;;;;8.82;4.90;;;;;;;15.74;42.44;99020.97;5069099;28;20044;-55
2022/05/30 14:32:07;;;;;;;12.65;4.85;;;;;;;16.27;41.86;99022.97;5038933;28;20021;-55
2022/05/30 14:34:40;;;;;;;8.73;5.10;;;;;;;15.81;41.57;99026.06;5066442;28;20217;-55
2022/05/30 14:37:25;;;;;;;9.13;5.00;;;;;;;16.20;41.85;99017.06;5067640;28;20027;-52
2022/05/30 14:39:52;;;;;;;11.80;4.68;;;;;;;16.53;40.47;99013.50;5066785;28;20427;-55
2022/05/30 14:42:20;;;;;;;10.40;4.70;;;;;;;16.69;40.44;99008.72;5043550;28;20037;-54
2022/05/30 14:44:51;;;;;;;6.28;4.25;;;;;;;15.94;40.06;99009.19;5067583;28;20028;-54
2022/05/30 14:47:29;;;;;;;6.95;4.50;;;;;;;16.68;40.52;99017.16;5066972;28;20028;-55
2022/05/30 14:50:19;;;;;;;10.02;5.18;;;;;;;16.25;41.47;99025.13;5061959;28;20024;-54
2022/05/30 14:52:46;;;;;;;8.90;5.13;;;;;;;17.24;41.84;99019.19;5066061;28;20041;-56
2022/05/30 14:55:15;;;;;;;6.43;4.57;;;;;;;17.81;39.78;99028.16;5066489;28;20023;-54
2022/05/30 14:57:45;;;;;;;9.90;4.85;;;;;;;17.63;38.77;99023.53;5067203;28;20078;-54
2022/05/30 15:00:31;;;;;;;9.57;4.95;;;;;;;17.62;39.27;99030.03;5036241;28;20063;-55
2022/05/30 15:05:40;;;;;;;8.02;5.07;;;;;;;17.40;38.75;99022.53;5066876;28;20034;-55
2022/05/30 15:08:07;;;;;;;11.40;6.18;;;;;;;17.46;39.00;99022.13;5068469;28;20363;-54
2022/05/30 15:10:32;;;;;;;8.10;4.80;;;;;;;17.86;38.14;99022.66;5050654;28;20107;-55
2022/05/30 15:12:57;;;;;;;6.63;4.55;;;;;;;17.52;38.22;99024.78;5067851;28;20024;-54
2022/05/30 15:15:23;;;;;;;9.35;5.13;;;;;;;17.30;39.50;99018.03;5066513;28;20028;-54
2022/05/30 15:17:49;;;;;;;10.95;4.80;;;;;;;17.44;38.49;99028.94;5066022;28;20090;-54
2022/05/30 15:20:18;;;;;;;16.80;5.40;;;;;;;17.41;39.38;99030.34;5066083;28;20031;-55
2022/05/30 15:22:44;;;;;;;9.35;4.93;;;;;;;17.14;39.06;99027.47;5064336;28;20028;-54
2022/05/30 15:25:09;;;;;;;7.22;4.95;;;;;;;17.72;38.34;99021.75;5049106;28;20393;-55
2022/05/30 15:27:34;;;;;;;6.22;4.45;;;;;;;16.55;39.21;99024.06;5066123;28;20418;-54
2022/05/30 15:30:00;;;;;;;7.45;4.60;;;;;;;16.95;40.20;99028.25;5035019;28;20443;-55
2022/05/30 15:32:26;;;;;;;10.75;5.18;;;;;;;17.40;39.49;99034.16;5065601;28;20020;-54
2022/05/30 15:34:51;;;;;;;14.27;4.97;;;;;;;17.28;38.86;99028.38;5066967;28;20028;-54
2022/05/30 15:37:18;;;;;;;8.50;5.00;;;;;;;17.24;39.77;99030.81;5064785;28;20029;-54
2022/05/30 15:39:46;;;;;;;8.80;4.95;;;;;;;17.80;38.61;99036.59;5067753;28;20032;-54
2022/05/30 15:42:11;;;;;;;7.63;4.70;;;;;;;17.52;37.82;99027.47;5067212;28;20024;-55
2022/05/30 15:44:41;;;;;;;7.13;4.70;;;;;;;17.82;37.73;99027.06;5049099;28;20036;-54
2022/05/30 15:47:07;;;;;;;;;;;;;;;16.84;38.35;99026.72;5066970;28;20058;-54
2022/05/30 15:49:33;;;;;;;8.77;5.00;;;;;;;16.56;39.01;99025.66;5065725;28;20347;-54
2022/05/30 15:52:07;;;;;;;8.82;5.38;;;;;;;16.56;40.27;99015.66;5065576;28;20032;-54
2022/05/30 15:57:33;;;;;;;6.97;4.97;;;;;;;17.40;38.45;99011.69;5051006;28;20082;-54
2022/05/30 15:59:58;;;;;;;9.73;4.90;;;;;;;17.29;38.38;99021.03;5046559;28;20028;-53
2022/05/30 16:02:25;;;;;;;8.38;4.63;;;;;;;17.67;38.89;99013.69;5054331;28;20036;-55
2022/05/30 16:04:50;;;;;;;7.32;4.80;;;;;;;17.46;38.31;99016.72;5066391;28;20025;-54
2022/05/30 16:07:16;;;;;;;8.00;4.90;;;;;;;16.73;39.19;99019.81;5064482;28;20098;-53
2022/05/30 16:09:47;;;;;;;8.45;4.95;;;;;;;16.69;39.97;99019.56;5047875;28;20475;-54
2022/05/30 16:12:19;;;;;;;9.20;4.75;;;;;;;16.27;40.37;99022.97;5065105;28;20538;-54
2022/05/30 16:14:45;;;;;;;8.07;4.80;;;;;;;16.39;40.90;99015.28;5026904;28;20362;-55
2022/05/30 16:17:10;;;;;;;10.30;5.40;;;;;;;16.43;40.92;99019.03;5048158;28;20359;-53
2022/05/30 16:19:36;;;;;;;9.32;5.03;;;;;;;16.01;41.54;99012.38;5065393;28;20481;-54
2022/05/30 16:22:03;;;;;;;9.82;5.28;;;;;;;15.59;42.67;99008.34;5064914;28;20025;-54
2022/05/30 16:24:28;;;;;;;9.98;5.30;;;;;;;15.74;42.36;99005.56;5057540;28;20024;-54
2022/05/30 16:26:53;;;;;;;9.13;5.20;;;;;;;16.17;41.99;99007.63;5065514;28;20380;-56
2022/05/30 16:29:19;;;;;;;11.48;5.47;;;;;;;16.09;42.34;99011.75;5065522;28;20445;-54
2022/05/30 16:31:44;;;;;;;7.28;4.97;;;;;;;16.23;42.00;99008.41;5066013;28;20037;-55
2022/05/30 16:34:10;;;;;;;7.40;4.68;;;;;;;16.43;42.09;99010.91;5066110;28;20107;-54
2022/05/30 16:36:37;;;;;;;7.82;4.82;;;;;;;15.93;41.71;99013.00;5063192;28;20513;-54
2022/05/30 16:39:04;;;;;;;7.97;5.13;;;;;;;16.25;41.80;99014.31;5046645;28;20092;-54
2022/05/30 16:41:29;;;;;;;7.85;4.90;;;;;;;16.01;41.47;99009.69;5065580;28;20052;-55
2022/05/30 16:43:55;;;;;;;11.77;5.32;;;;;;;16.02;41.95;99008.59;5047070;28;20059;-54
2022/05/30 16:46:22;;;;;;;9.10;5.22;;;;;;;16.05;41.98;99015.31;5034127;28;20086;-54
2022/05/30 16:48:47;;;;;;;7.80;4.85;;;;;;;16.29;42.46;99012.69;5046190;28;20402;-53
2022/05/30 16:51:14;;;;;;;8.18;4.68;;;;;;;16.32;41.84;99021.00;5061772;28;20054;-54
2022/05/30 16:53:39;;;;;;;6.07;4.60;;;;;;;16.25;42.64;99017.03;5060784;28;20115;-54
2022/05/30 16:56:05;;;;;;;9.00;4.53;;;;;;;15.71;42.43;99016.94;5065057;28;20077;-54
2022/05/30 16:58:30;;;;;;;8.70;5.10;;;;;;;15.81;42.75;99021.47;5065470;28;20699;-55
2022/05/30 17:00:56;;;;;;;9.75;5.20;;;;;;;16.30;41.32;99023.22;5063786;28;20443;-55
2022/05/30 17:03:21;;;;;;;8.38;5.32;;;;;;;16.27;41.88;99022.97;5038054;28;20023;-53
2022/05/30 17:05:50;;;;;;;8.30;4.60;;;;;;;16.45;42.00;99016.84;5047790;28;20466;-56
2022/05/30 17:08:17;;;;;;;9.93;4.72;;;;;;;16.35;41.67;99025.06;5064695;28;20048;-56
2022/05/30 17:10:43;;;;;;;9.50;5.15;;;;;;;16.23;41.59;99016.53;5042635;28;20066;-56
2022/05/30 17:13:13;;;;;;;7.65;4.95;;;;;;;16.22;41.56;99021.09;5052562;28;20035;-56
2022/05/30 17:15:38;;;;;;;7.13;4.95;;;;;;;16.17;42.57;99013.88;5062925;28;20102;-56